UGSB/BUS METAR and TAF weather

Enter ICAO airport designator
Station Type Date Time Source
UGSB METAR 2020/09/22 00:30 UTC NOAA

UGSB 220030Z 12009KT 9999 FEW026 SCT065 19/17 Q1016 NOSIG


Station Type Date Time Source
UGSB Decoded METAR 2020/09/22 00:30 UTC NOAA

Station name not available
Sep 21, 2020 - 08:30 PM EDT / 2020.09.22 0030 UTC
Wind: from the ESE (120 degrees) at 10 MPH (9 KT):0
Visibility: greater than 7 mile(s):0
Sky conditions: partly cloudy
Temperature: 66 F (19 C)
Dew Point: 62 F (17 C)
Relative Humidity: 88%
Pressure (altimeter): 30.00 in. Hg (1016 hPa)
ob: UGSB 220030Z 12009KT 9999 FEW026 SCT065 19/17 Q1016 NOSIG
cycle: 0

Station Type Date Time Source
UGSB TAF 2020/09/21 18:05 UTC NOAA

TAF UGSB 211700Z 2118/2218 13011KT 9999 SCT030 BKN070 TX25/2211Z TN19/2120Z
BECMG 2207/2208 33007KT

Example: see airport list